Tri Cities Airport
KPSC : now visible

Airfield :











YOU CAN JOIN US ON...

 
LOGIN :

Register | Disclaimer

   EN    FR    IT 

 









Legend :    VFR   Marginal VFR   IFR   Intensive IFR   Very Intensive IFR
Visi :
Ceiling :
>= 8 km
>= 3000ft
5 to 8 km
1000 to 3000 ft
1500m to 5 km
500 to 1000 ft
800 to 1500m
200 to 500 ft
< 800m
< 200 ft
Symbols :   Thunderstorms  Fog  Heavy snow  Heavy precipitations  Wind > 20 kt







- Airport Elevation : 410 ft
- IATA code : PSC


KPSC - Tri Cities

CURRENT METAR :
  • 181053Z AUTO 13005KT 10SM BKN090 OVC100 14/13 A2978 RMK AO2 RAE41 SLP081 P0004 T01440133

EXPIRED METARs :
  • 180953Z AUTO 00000KT 10SM -RA BKN060 OVC075 14/12 A2978 RMK AO2 RAB25 SLP084 P0000 T01390117
  • 180853Z AUTO 12003KT 10SM SCT055 BKN080 OVC100 15/11 A2978 RMK AO2 RAB16E25 SLP082 P0000 60000 T01500106 53003

TAF KPSC
Valid from the 18 at 06:00 until the 19 at 06:00 UTC


180520Z 1806/1906 19009KT P6SM -SHRA BKN070
FM181700 27009KT P6SM -SHRA BKN060
No reported NOTAMs for that airfield.



MET'MAP, your aeronautical weather chart ! - Copyright ORBIFLY December 2007 - Disclaimer

ORBIFLY MET'MAP TEAM :

Programming & Development : Alexandra Zaïnal
Concept & Development : Baudouin d'Aumeries
Co-Development & Prog : Marc-Olivier Méhu
Technical & hardware support : Manuel Goepfert

Contact : metmap@orbifly.com




SOURCES & CREDITS :

   NOAA       Earth
Advisory